Time;durP1;ratioP1;P1;durP2;ratioP2;P2;SDS_P1;SDS_P2;PMS_P1;PMS_P2;Temp;Humidity;BMP_temperature;BMP_pressure;BME280_temperature;BME280_humidity;BME280_pressure;Samples;Min_cycle;Max_cycle;Signal;HPM_P1;HPM_P2
2022/10/04 04:01:21;;;;;;;4.00;3.30;;;7.90;99.90;;;;;;5631506;23;21069;-73
2022/10/04 04:03:58;;;;;;;5.33;3.57;;;7.90;99.90;;;;;;4933846;29;20938;-73
2022/10/04 04:06:28;;;;;;;4.23;3.83;;;7.90;99.90;;;;;;4933841;29;21005;-73
2022/10/04 04:08:57;;;;;;;5.83;3.37;;;7.90;99.90;;;;;;4934083;29;20454;-73
2022/10/04 04:11:27;;;;;;;7.90;4.67;;;7.90;99.90;;;;;;4924868;29;20479;-73
2022/10/04 04:14:05;;;;;;;11.00;4.80;;;7.90;99.90;;;;;;4915295;29;20471;-73
2022/10/04 04:16:36;;;;;;;17.73;4.60;;;7.90;99.90;;;;;;4914886;29;20466;-73
2022/10/04 04:19:05;;;;;;;6.03;4.20;;;7.80;99.90;;;;;;4915245;29;20786;-73
2022/10/04 04:21:32;;;;;;;6.43;4.10;;;7.80;99.90;;;;;;4915185;29;20479;-74
2022/10/04 04:24:04;;;;;;;4.50;4.10;;;7.90;99.90;;;;;;4915908;29;20444;-73
2022/10/04 04:26:38;;;;;;;6.93;4.93;;;7.90;99.90;;;;;;4915943;29;20444;-73
2022/10/04 04:29:11;;;;;;;8.63;4.10;;;7.90;99.90;;;;;;4915656;29;20467;-73
2022/10/04 04:31:43;;;;;;;7.47;3.90;;;7.90;99.90;;;;;;4915398;29;20478;-73
2022/10/04 04:34:20;;;;;;;19.40;5.23;;;7.90;99.90;;;;;;4913371;29;20459;-74
2022/10/04 04:36:47;;;;;;;8.40;5.43;;;7.80;99.90;;;;;;4911742;29;20924;-68
2022/10/04 04:39:36;;;;;;;7.60;4.40;;;7.80;99.90;;;;;;4910008;29;20775;-68
2022/10/04 04:42:06;;;;;;;6.30;4.77;;;7.70;99.90;;;;;;4910298;29;20606;-68
2022/10/04 04:44:33;;;;;;;7.03;5.17;;;7.80;99.90;;;;;;4909786;29;20463;-68
2022/10/04 04:47:01;;;;;;;5.57;4.30;;;7.70;99.90;;;;;;4911071;29;20462;-68
2022/10/04 04:49:30;;;;;;;4.83;4.30;;;7.70;99.90;;;;;;4910927;29;20459;-68
2022/10/04 04:51:57;;;;;;;6.13;4.40;;;7.70;99.90;;;;;;4913406;29;20475;-76
2022/10/04 04:54:27;;;;;;;4.40;3.80;;;7.70;99.90;;;;;;4914066;29;20531;-75
2022/10/04 04:56:56;;;;;;;5.37;4.87;;;7.70;99.90;;;;;;4914751;29;20455;-75
2022/10/04 04:59:24;;;;;;;5.47;4.50;;;7.70;99.90;;;;;;4914515;29;20467;-76
2022/10/04 05:01:52;;;;;;;11.63;4.90;;;7.70;99.90;;;;;;4914157;29;20501;-76
2022/10/04 05:04:22;;;;;;;4.97;4.10;;;7.60;99.90;;;;;;4913809;29;20596;-75
2022/10/04 05:07:00;;;;;;;5.00;4.07;;;7.50;99.90;;;;;;4913777;29;20448;-78
2022/10/04 05:09:30;;;;;;;6.27;4.93;;;7.50;99.90;;;;;;4914114;29;20447;-75
2022/10/04 05:12:06;;;;;;;4.97;4.50;;;7.60;99.90;;;;;;4914208;29;20490;-75
2022/10/04 05:14:33;;;;;;;4.90;3.90;;;7.60;99.90;;;;;;4912840;29;21002;-75
2022/10/04 05:17:01;;;;;;;4.63;4.10;;;7.50;99.90;;;;;;4913397;29;20464;-75
2022/10/04 05:19:32;;;;;;;5.87;4.47;;;7.60;99.90;;;;;;4913229;29;20459;-79
2022/10/04 05:22:00;;;;;;;7.50;4.73;;;7.60;99.90;;;;;;4912338;29;20866;-75
2022/10/04 05:24:31;;;;;;;4.10;3.70;;;7.60;99.90;;;;;;4911362;29;20467;-75
2022/10/04 05:27:01;;;;;;;7.13;4.40;;;7.60;99.90;;;;;;4912970;29;20498;-75
2022/10/04 05:29:32;;;;;;;5.00;4.30;;;7.60;99.90;;;;;;4912721;29;20455;-75
2022/10/04 05:32:20;;;;;;;4.90;3.93;;;7.60;99.90;;;;;;4912404;29;20575;-75
2022/10/04 05:34:49;;;;;;;5.00;4.50;;;7.60;99.90;;;;;;4912254;29;20482;-74
2022/10/04 05:37:42;;;;;;;4.77;4.13;;;7.60;99.90;;;;;;4912139;29;20524;-77
2022/10/04 05:40:29;;;;;;;5.47;4.40;;;7.60;99.90;;;;;;4899776;29;20523;-75
2022/10/04 05:42:58;;;;;;;9.10;5.73;;;7.60;99.90;;;;;;4912289;29;20482;-74
2022/10/04 05:45:27;;;;;;;7.67;6.37;;;7.60;99.90;;;;;;4911149;29;21122;-75
2022/10/04 05:47:56;;;;;;;10.37;7.90;;;7.60;99.90;;;;;;4912227;29;20476;-75
2022/10/04 05:50:30;;;;;;;6.77;6.07;;;7.70;99.90;;;;;;4912260;29;20463;-75
2022/10/04 05:53:23;;;;;;;6.63;5.30;;;7.70;99.90;;;;;;4912370;29;20435;-75
2022/10/04 05:56:00;;;;;;;8.67;6.83;;;7.70;99.90;;;;;;4911750;29;20448;-75
2022/10/04 05:58:49;;;;;;;10.60;6.20;;;7.70;99.90;;;;;;4911997;29;20458;-76
2022/10/04 06:01:26;;;;;;;7.60;4.93;;;7.70;99.90;;;;;;4911849;29;20889;-75
2022/10/04 06:04:13;;;;;;;4.97;4.37;;;7.60;99.90;;;;;;4912469;29;20488;-78
2022/10/04 06:06:49;;;;;;;5.40;4.90;;;7.60;99.90;;;;;;4913165;29;20462;-74
2022/10/04 06:09:35;;;;;;;5.80;5.20;;;7.60;99.90;;;;;;4912623;29;20451;-75
2022/10/04 06:12:08;;;;;;;7.43;5.30;;;7.60;99.90;;;;;;4912202;29;20502;-75
2022/10/04 06:14:50;;;;;;;5.00;4.30;;;7.60;99.90;;;;;;4911888;29;20466;-75
2022/10/04 06:17:38;;;;;;;5.20;4.70;;;7.60;99.90;;;;;;4912436;29;20455;-75
2022/10/04 06:20:20;;;;;;;7.00;4.83;;;7.60;99.90;;;;;;4903035;29;20531;-77
2022/10/04 06:22:57;;;;;;;8.43;5.10;;;7.60;99.90;;;;;;4912598;29;20502;-74
2022/10/04 06:25:29;;;;;;;8.20;5.47;;;7.70;99.90;;;;;;4911497;29;20936;-77
2022/10/04 06:28:06;;;;;;;6.10;4.87;;;7.70;99.90;;;;;;4912868;29;20452;-75
2022/10/04 06:30:54;;;;;;;5.00;4.30;;;7.70;99.90;;;;;;4912356;29;20513;-74
2022/10/04 06:33:36;;;;;;;5.57;4.80;;;7.70;99.90;;;;;;4912272;29;20451;-75
2022/10/04 06:36:29;;;;;;;7.50;6.40;;;7.70;99.90;;;;;;4911841;29;20444;-75
2022/10/04 06:39:14;;;;;;;7.57;6.77;;;7.60;99.90;;;;;;4912512;29;20466;-75
2022/10/04 06:42:09;;;;;;;7.40;6.40;;;7.70;99.90;;;;;;4911967;29;20479;-75
2022/10/04 06:44:52;;;;;;;5.50;5.00;;;7.70;99.90;;;;;;4911872;29;20460;-75
2022/10/04 06:47:42;;;;;;;6.27;5.23;;;7.70;99.90;;;;;;4911951;29;20455;-74
2022/10/04 06:50:24;;;;;;;5.93;4.60;;;7.70;99.90;;;;;;4912429;29;20559;-74
2022/10/04 06:53:06;;;;;;;5.50;4.97;;;7.70;99.90;;;;;;4912047;29;20471;-75
2022/10/04 06:55:52;;;;;;;6.30;4.87;;;7.70;99.90;;;;;;4912390;29;20463;-75
2022/10/04 06:58:39;;;;;;;8.97;5.57;;;7.70;99.90;;;;;;4915867;29;20443;-75
2022/10/04 07:01:18;;;;;;;8.53;5.97;;;7.80;99.90;;;;;;4915232;29;20714;-75
2022/10/04 07:03:52;;;;;;;11.20;6.53;;;7.90;99.90;;;;;;4915599;29;20479;-76
2022/10/04 07:06:27;;;;;;;10.03;7.57;;;8.00;99.90;;;;;;4915717;29;20463;-76
2022/10/04 07:08:58;;;;;;;7.80;6.60;;;8.00;99.90;;;;;;4916204;29;20459;-75
2022/10/04 07:11:31;;;;;;;9.20;7.37;;;8.10;99.90;;;;;;4915234;29;20483;-75
2022/10/04 07:14:05;;;;;;;7.90;7.10;;;8.10;99.90;;;;;;4915313;29;20462;-75
2022/10/04 07:16:42;;;;;;;8.47;6.40;;;8.20;99.90;;;;;;4915089;29;20951;-74
2022/10/04 07:19:33;;;;;;;10.30;6.47;;;8.20;99.90;;;;;;4915634;29;20447;-75
2022/10/04 07:22:11;;;;;;;6.67;5.90;;;8.30;99.90;;;;;;4914889;29;20482;-75
2022/10/04 07:24:48;;;;;;;10.80;5.90;;;8.40;99.90;;;;;;4915234;29;20529;-75
2022/10/04 07:27:20;;;;;;;6.87;5.20;;;8.40;99.90;;;;;;4915385;29;20443;-75
2022/10/04 07:29:53;;;;;;;7.93;5.90;;;8.40;99.90;;;;;;4915027;29;20443;-74
2022/10/04 07:32:25;;;;;;;8.67;6.30;;;8.50;99.90;;;;;;4915243;29;20478;-75
2022/10/04 07:34:56;;;;;;;7.50;5.67;;;8.50;99.90;;;;;;4914715;29;20478;-76
2022/10/04 07:37:27;;;;;;;9.10;5.97;;;8.60;99.90;;;;;;4914710;29;20939;-75
2022/10/04 07:40:00;;;;;;;6.60;5.93;;;8.60;99.90;;;;;;4914496;29;20988;-75
2022/10/04 07:42:33;;;;;;;10.17;5.97;;;8.70;99.90;;;;;;4915098;29;20478;-76
2022/10/04 07:45:09;;;;;;;7.40;6.10;;;8.70;99.90;;;;;;4914792;29;20462;-74
2022/10/04 07:47:36;;;;;;;5.93;5.33;;;8.70;99.90;;;;;;4914606;29;20470;-75
2022/10/04 07:50:22;;;;;;;7.47;5.40;;;8.80;99.90;;;;;;4914495;29;20947;-75
2022/10/04 07:52:53;;;;;;;8.57;5.70;;;8.80;99.90;;;;;;4914223;29;20458;-75
2022/10/04 07:55:28;;;;;;;7.20;6.00;;;8.90;99.90;;;;;;4913889;29;20455;-74
2022/10/04 07:58:23;;;;;;;8.20;5.70;;;8.90;99.90;;;;;;4914488;29;20445;-75
2022/10/04 08:00:56;;;;;;;6.70;5.47;;;8.90;99.90;;;;;;4914580;29;20495;-75
2022/10/04 08:03:46;;;;;;;10.03;5.93;;;9.00;99.90;;;;;;4914510;29;20502;-76
2022/10/04 08:06:18;;;;;;;7.30;5.50;;;9.00;99.90;;;;;;4914130;29;20499;-75
2022/10/04 08:09:12;;;;;;;8.13;6.00;;;9.10;99.90;;;;;;4914453;29;20465;-74
2022/10/04 08:11:51;;;;;;;6.83;5.83;;;9.20;99.90;;;;;;4914214;29;20474;-75
2022/10/04 08:14:31;;;;;;;7.53;6.10;;;9.30;99.90;;;;;;4913843;29;20497;-76
2022/10/04 08:17:15;;;;;;;14.10;6.30;;;9.30;99.90;;;;;;4913846;29;20455;-75
2022/10/04 08:19:53;;;;;;;12.30;7.10;;;9.40;99.90;;;;;;4913989;29;20446;-76
2022/10/04 08:22:31;;;;;;;8.50;6.70;;;9.40;99.90;;;;;;4913964;29;20502;-75
2022/10/04 08:25:04;;;;;;;10.07;7.00;;;9.50;99.90;;;;;;4913721;29;20495;-75
2022/10/04 08:29:41;;;;;;;7.47;5.83;;;9.50;99.90;;;;;;4914675;29;20447;-75
2022/10/04 08:30:47;;;;;;;10.70;6.73;;;9.60;99.90;;;;;;4913928;29;20546;-77
2022/10/04 08:33:27;;;;;;;10.50;6.90;;;9.80;99.90;;;;;;4914416;29;20471;-75
2022/10/04 08:36:04;;;;;;;10.67;6.40;;;9.90;99.90;;;;;;4913994;29;20455;-75
2022/10/04 08:38:42;;;;;;;7.13;4.90;;;10.00;99.90;;;;;;4913854;29;20904;-75
2022/10/04 08:41:43;;;;;;;10.03;5.30;;;10.10;99.90;;;;;;4913219;29;20482;-76
2022/10/04 08:44:45;;;;;;;14.27;5.20;;;10.20;99.90;;;;;;4913461;29;20483;-75
2022/10/04 08:47:33;;;;;;;12.60;5.83;;;10.30;99.90;;;;;;4913344;29;20913;-76
2022/10/04 08:50:54;;;;;;;6.83;4.83;;;10.50;99.90;;;;;;4914056;29;20825;-77
2022/10/04 08:53:56;;;;;;;7.43;4.90;;;10.70;99.90;;;;;;4854837;29;20798;-76
2022/10/04 08:56:32;;;;;;;9.23;4.77;;;10.90;99.90;;;;;;4842437;29;20474;-77
2022/10/04 08:59:36;;;;;;;9.83;4.70;;;11.00;99.90;;;;;;4898281;29;20466;-75
2022/10/04 09:02:36;;;;;;;6.03;3.93;;;11.20;99.90;;;;;;4913445;29;20499;-75
2022/10/04 09:05:23;;;;;;;12.10;4.90;;;11.30;99.90;;;;;;4913236;29;20475;-75
2022/10/04 09:08:25;;;;;;;8.60;4.10;;;11.60;99.90;;;;;;4913830;29;20439;-76
2022/10/04 09:11:18;;;;;;;4.40;3.60;;;12.00;99.90;;;;;;4896590;29;20482;-75
2022/10/04 09:14:04;;;;;;;9.07;4.30;;;12.10;99.90;;;;;;4913028;29;20955;-75
2022/10/04 09:16:42;;;;;;;5.13;3.77;;;12.30;99.90;;;;;;4913188;29;20456;-76
2022/10/04 09:19:21;;;;;;;6.53;3.30;;;12.60;99.90;;;;;;4912877;29;20934;-76
2022/10/04 09:22:18;;;;;;;9.50;3.80;;;12.80;99.90;;;;;;4913507;29;20479;-76
2022/10/04 09:25:04;;;;;;;7.20;3.53;;;13.20;99.90;;;;;;4913249;29;20483;-74
2022/10/04 09:27:47;;;;;;;10.10;4.17;;;13.50;99.90;;;;;;4913716;29;20948;-75
2022/10/04 09:30:19;;;;;;;5.30;3.20;;;13.70;99.90;;;;;;4912987;29;20447;-75
2022/10/04 09:33:03;;;;;;;5.97;3.33;;;13.80;99.90;;;;;;4912934;29;20937;-76
2022/10/04 09:36:05;;;;;;;9.10;3.80;;;14.00;99.90;;;;;;4913015;29;20447;-74
2022/10/04 09:38:58;;;;;;;6.07;3.00;;;14.20;99.90;;;;;;4912224;29;20926;-76
2022/10/04 09:41:38;;;;;;;3.93;2.83;;;14.30;99.90;;;;;;4911811;29;20487;-75
2022/10/04 09:44:52;;;;;;;7.27;3.10;;;14.50;99.90;;;;;;4911854;29;20501;-78
2022/10/04 09:47:36;;;;;;;7.53;3.43;;;14.60;99.90;;;;;;4853990;29;20495;-76
2022/10/04 09:50:34;;;;;;;5.10;2.57;;;14.90;99.90;;;;;;4912418;29;20447;-76
2022/10/04 09:53:34;;;;;;;6.10;2.70;;;15.50;99.90;;;;;;4911748;29;20924;-75
2022/10/04 09:56:26;;;;;;;5.40;3.03;;;15.80;99.90;;;;;;4911494;29;20447;-76
2022/10/04 09:59:20;;;;;;;5.73;2.30;;;16.40;99.90;;;;;;4911645;29;20977;-77
2022/10/04 10:02:03;;;;;;;3.80;2.40;;;16.90;99.90;;;;;;4911493;29;20546;-76
2022/10/04 10:04:43;;;;;;;2.53;1.93;;;17.20;99.90;;;;;;4910616;29;20869;-77
2022/10/04 10:07:24;;;;;;;9.17;2.53;;;17.10;99.90;;;;;;4911265;29;20474;-76
2022/10/04 10:16:00;;;;;;;6.03;2.30;;;17.50;99.90;;;;;;4910854;29;20447;-76
2022/10/04 10:18:36;;;;;;;5.67;2.37;;;17.80;99.90;;;;;;4911550;29;20490;-75
2022/10/04 10:21:34;;;;;;;6.40;2.30;;;17.80;99.90;;;;;;4910764;29;20486;-76
2022/10/04 10:24:25;;;;;;;5.07;2.43;;;17.90;99.90;;;;;;4909846;29;20498;-75
2022/10/04 10:27:15;;;;;;;5.27;2.20;;;17.80;99.90;;;;;;4910227;29;21139;-76
2022/10/04 10:30:09;;;;;;;4.30;2.67;;;18.20;99.90;;;;;;4910143;29;20447;-75
2022/10/04 10:32:54;;;;;;;3.77;2.30;;;18.30;99.90;;;;;;4912046;29;20479;-76
2022/10/04 10:35:44;;;;;;;5.37;2.03;;;18.30;99.90;;;;;;4912702;29;20451;-75
2022/10/04 10:38:32;;;;;;;4.80;2.20;;;18.40;99.90;;;;;;4919604;29;20457;-77
2022/10/04 10:41:40;;;;;;;5.00;2.33;;;18.80;99.90;;;;;;4920356;29;20521;-76
2022/10/04 10:44:25;;;;;;;8.70;2.83;;;19.20;99.90;;;;;;4870254;29;20506;-75
2022/10/04 10:47:11;;;;;;;4.40;2.13;;;19.30;99.90;;;;;;4895400;29;20460;-75
2022/10/04 10:50:03;;;;;;;4.97;2.47;;;19.40;99.90;;;;;;4895385;29;20839;-75
2022/10/04 10:53:30;;;;;;;7.10;2.63;;;19.90;99.90;;;;;;4891680;29;20499;-76
2022/10/04 10:56:28;;;;;;;5.47;2.10;;;20.10;99.90;;;;;;4836142;29;20632;-77
2022/10/04 10:59:27;;;;;;;2.83;2.07;;;19.60;99.90;;;;;;4893357;29;20957;-76
2022/10/04 11:02:23;;;;;;;3.77;2.40;;;19.60;99.90;;;;;;4870236;29;20547;-76
2022/10/04 11:05:08;;;;;;;4.30;2.40;;;19.60;99.90;;;;;;4893785;29;20492;-75
2022/10/04 11:08:03;;;;;;;4.93;2.17;;;19.40;99.90;;;;;;4893966;29;20470;-76
2022/10/04 11:10:58;;;;;;;6.80;2.70;;;19.50;99.90;;;;;;4892519;29;20895;-75
2022/10/04 11:14:02;;;;;;;4.73;2.20;;;19.60;99.90;;;;;;4894715;29;20464;-76
2022/10/04 11:16:56;;;;;;;4.37;2.60;;;19.50;99.90;;;;;;4895456;29;20470;-76
2022/10/04 11:20:04;;;;;;;3.53;1.70;;;19.70;99.90;;;;;;4895264;29;20452;-75
2022/10/04 11:23:17;;;;;;;9.33;2.53;;;20.60;99.90;;;;;;4894398;29;20579;-76
2022/10/04 11:26:13;;;;;;;4.53;2.27;;;20.80;99.90;;;;;;4894472;29;20490;-75
2022/10/04 11:28:46;;;;;;;3.50;2.47;;;20.80;99.90;;;;;;4892448;29;20483;-76
2022/10/04 11:31:52;;;;;;;2.83;1.70;;;20.90;99.90;;;;;;4895150;29;20476;-76
2022/10/04 11:35:01;;;;;;;4.00;2.17;;;21.30;99.90;;;;;;4894381;29;20472;-76
2022/10/04 11:37:49;;;;;;;6.03;2.20;;;21.60;99.90;;;;;;4894768;29;20475;-76
2022/10/04 11:40:39;;;;;;;4.17;1.73;;;21.40;99.90;;;;;;4894594;29;20464;-75
2022/10/04 11:43:24;;;;;;;6.27;2.77;;;21.40;99.90;;;;;;4892323;29;20483;-76
2022/10/04 11:46:03;;;;;;;4.97;2.13;;;21.70;99.90;;;;;;4894022;29;20483;-77
2022/10/04 11:48:38;;;;;;;5.30;2.10;;;22.00;99.90;;;;;;4894568;29;20444;-77
2022/10/04 11:51:39;;;;;;;4.80;2.23;;;22.20;99.90;;;;;;4895099;29;20487;-78
2022/10/04 11:54:35;;;;;;;3.83;1.93;;;22.40;99.90;;;;;;4893838;29;20942;-77
2022/10/04 11:57:19;;;;;;;4.60;1.90;;;22.80;99.90;;;;;;4891825;29;20472;-77
2022/10/04 11:59:54;;;;;;;3.70;2.00;;;22.90;99.90;;;;;;4894906;29;20468;-77
2022/10/04 12:03:04;;;;;;;3.00;2.00;;;23.50;99.90;;;;;;4893993;29;21403;-77
2022/10/04 12:06:00;;;;;;;3.47;2.07;;;23.50;99.90;;;;;;4893866;29;20484;-77
2022/10/04 12:08:37;;;;;;;4.90;2.00;;;23.50;99.90;;;;;;4894343;29;20510;-77
2022/10/04 12:12:35;;;;;;;5.17;2.07;;;23.70;99.90;;;;;;4894225;29;20479;-78
2022/10/04 12:14:25;;;;;;;4.60;1.77;;;23.80;99.90;;;;;;4893634;29;20465;-77
2022/10/04 12:17:30;;;;;;;4.93;2.00;;;23.60;99.90;;;;;;4894291;29;20447;-76
2022/10/04 12:20:18;;;;;;;2.73;1.80;;;23.30;99.90;;;;;;4899938;29;20451;-77
2022/10/04 12:23:00;;;;;;;3.60;1.97;;;23.20;99.90;;;;;;4912764;29;20916;-77
2022/10/04 12:25:58;;;;;;;4.10;1.67;;;23.10;99.90;;;;;;4910775;29;21359;-76
2022/10/04 12:28:47;;;;;;;2.93;1.77;;;23.10;99.90;;;;;;4860699;29;20458;-76
2022/10/04 12:31:21;;;;;;;5.17;2.20;;;22.90;99.90;;;;;;4912046;29;20558;-76
2022/10/04 12:33:55;;;;;;;4.97;2.13;;;22.90;99.90;;;;;;4911811;29;21149;-76
2022/10/04 12:36:36;;;;;;;5.03;2.30;;;22.90;99.90;;;;;;4911353;29;20454;-76
2022/10/04 12:39:27;;;;;;;2.70;1.63;;;23.10;99.90;;;;;;4911705;29;20463;-77
2022/10/04 12:42:08;;;;;;;3.80;1.93;;;23.10;99.90;;;;;;4903163;29;20554;-77
2022/10/04 12:44:47;;;;;;;3.77;2.10;;;23.20;99.90;;;;;;4910969;29;20475;-76
2022/10/04 12:47:49;;;;;;;5.23;2.30;;;23.20;99.90;;;;;;4911443;29;20467;-76
2022/10/04 12:50:25;;;;;;;2.90;1.80;;;23.20;99.90;;;;;;4911397;29;20462;-76
2022/10/04 12:53:01;;;;;;;6.90;1.90;;;23.30;99.90;;;;;;4910800;29;20980;-76
2022/10/04 12:55:51;;;;;;;3.17;1.70;;;23.40;99.90;;;;;;4910512;29;20569;-76
2022/10/04 12:58:25;;;;;;;3.87;2.03;;;23.40;99.90;;;;;;4910530;29;20932;-77
2022/10/04 13:00:57;;;;;;;3.33;1.80;;;23.60;99.90;;;;;;4911510;29;20495;-76
2022/10/04 13:03:33;;;;;;;2.33;1.53;;;23.70;99.90;;;;;;4911895;29;20451;-76
2022/10/04 13:06:09;;;;;;;3.40;1.90;;;23.70;99.90;;;;;;4911447;29;20494;-74
2022/10/04 13:08:59;;;;;;;2.13;1.47;;;23.70;99.90;;;;;;4911955;29;20459;-76
2022/10/04 13:11:52;;;;;;;2.17;1.53;;;23.60;99.90;;;;;;4911692;29;20605;-76
2022/10/04 13:14:34;;;;;;;4.13;1.70;;;23.70;99.90;;;;;;4910585;29;20452;-77
2022/10/04 13:17:08;;;;;;;3.23;1.90;;;23.60;99.90;;;;;;4911961;29;20502;-76
2022/10/04 13:19:41;;;;;;;4.17;1.70;;;23.60;99.90;;;;;;4912694;29;20452;-77
2022/10/04 13:22:42;;;;;;;7.10;2.10;;;23.70;99.90;;;;;;4911770;29;20494;-75
2022/10/04 13:25:23;;;;;;;3.90;1.60;;;23.70;99.90;;;;;;4911032;29;20854;-76
2022/10/04 13:27:58;;;;;;;4.33;1.93;;;23.80;99.90;;;;;;4912532;29;20829;-75
2022/10/04 13:30:28;;;;;;;4.27;1.73;;;23.90;99.90;;;;;;4911624;29;20448;-77
2022/10/04 13:33:05;;;;;;;3.47;2.07;;;23.90;99.90;;;;;;4911928;29;20458;-77
2022/10/04 13:35:36;;;;;;;5.00;1.93;;;24.00;99.90;;;;;;4911546;29;20478;-77
2022/10/04 13:38:38;;;;;;;4.73;2.13;;;24.00;99.90;;;;;;4911656;29;20435;-77
2022/10/04 13:41:17;;;;;;;2.07;1.50;;;23.90;99.90;;;;;;4911169;29;20835;-77
2022/10/04 13:44:07;;;;;;;2.33;1.60;;;23.90;99.90;;;;;;4911325;29;20450;-76
2022/10/04 13:46:45;;;;;;;2.77;1.50;;;23.90;99.90;;;;;;4911013;29;20470;-77
2022/10/04 13:49:26;;;;;;;3.07;1.80;;;23.90;99.90;;;;;;4911366;29;20455;-78
2022/10/04 13:57:50;;;;;;;3.73;1.87;;;24.20;99.90;;;;;;4910757;29;20470;-76
2022/10/04 14:00:33;;;;;;;4.70;1.77;;;24.20;99.90;;;;;;4911071;29;20449;-77
2022/10/04 14:03:23;;;;;;;3.93;1.93;;;24.20;99.90;;;;;;4911082;29;20538;-77
2022/10/04 14:06:24;;;;;;;4.83;1.63;;;24.20;99.90;;;;;;4910515;29;20482;-76
2022/10/04 14:09:15;;;;;;;3.43;2.10;;;24.20;99.90;;;;;;4911144;29;20469;-77
2022/10/04 14:12:09;;;;;;;3.00;1.70;;;24.20;99.90;;;;;;4910693;29;20821;-75
2022/10/04 14:15:15;;;;;;;3.47;1.93;;;24.20;99.90;;;;;;4910429;29;20459;-77
2022/10/04 14:18:18;;;;;;;2.67;1.60;;;24.20;99.90;;;;;;4910468;29;20474;-77
2022/10/04 14:21:14;;;;;;;2.23;1.60;;;24.20;99.90;;;;;;4910594;29;20483;-76
2022/10/04 14:24:04;;;;;;;6.53;1.90;;;24.20;99.90;;;;;;4910807;29;20812;-77
2022/10/04 14:27:04;;;;;;;3.63;1.93;;;24.10;99.90;;;;;;4910298;29;20498;-76
2022/10/04 14:29:59;;;;;;;4.33;1.53;;;24.10;99.90;;;;;;4910695;29;20455;-76
2022/10/04 14:32:57;;;;;;;2.40;1.63;;;24.10;99.90;;;;;;4900427;29;20487;-76
2022/10/04 14:35:27;;;;;;;1.53;1.13;;;24.10;99.90;;;;;;4909640;29;20838;-76
2022/10/04 14:38:25;;;;;;;2.03;1.20;;;24.20;99.90;;;;;;4910762;29;20467;-75
2022/10/04 14:41:43;;;;;;;1.90;1.20;;;24.30;99.90;;;;;;4910693;29;20983;-76
2022/10/04 14:44:38;;;;;;;3.40;1.90;;;24.30;99.90;;;;;;4910646;29;20455;-76
2022/10/04 14:47:21;;;;;;;2.40;1.13;;;24.40;99.90;;;;;;4910995;29;20459;-76
2022/10/04 14:50:02;;;;;;;3.23;1.60;;;24.40;99.90;;;;;;4910628;29;20462;-76
2022/10/04 14:52:43;;;;;;;3.30;1.70;;;24.60;99.90;;;;;;4910816;29;20487;-78
2022/10/04 14:55:22;;;;;;;2.70;1.23;;;24.70;99.90;;;;;;4908627;29;20462;-76
2022/10/04 14:58:06;;;;;;;2.07;1.20;;;24.90;99.90;;;;;;4910728;29;20534;-76
2022/10/04 15:00:54;;;;;;;3.40;1.10;;;25.00;99.90;;;;;;4910835;29;20454;-76
2022/10/04 15:03:39;;;;;;;2.30;1.33;;;25.20;99.90;;;;;;4909298;29;20456;-76
2022/10/04 15:06:21;;;;;;;2.53;1.40;;;25.30;99.90;;;;;;4907260;29;20494;-76
2022/10/04 15:09:12;;;;;;;1.77;1.10;;;25.50;99.90;;;;;;4910570;29;21229;-76
2022/10/04 15:11:46;;;;;;;2.23;1.00;;;25.50;99.90;;;;;;4910424;29;20530;-76
2022/10/04 15:14:37;;;;;;;2.60;1.10;;;25.70;99.90;;;;;;4909896;29;20487;-75
2022/10/04 15:17:10;;;;;;;3.17;1.43;;;26.00;99.90;;;;;;4911528;29;20465;-76
2022/10/04 15:19:53;;;;;;;2.83;1.30;;;26.20;99.90;;;;;;4914065;29;20467;-78
2022/10/04 15:22:26;;;;;;;2.63;1.27;;;26.30;99.90;;;;;;4913844;29;20487;-76
2022/10/04 15:24:53;;;;;;;2.40;1.30;;;26.40;99.90;;;;;;4913435;29;20561;-76
2022/10/04 15:27:46;;;;;;;3.27;1.20;;;26.60;99.90;;;;;;4914095;29;20854;-75
2022/10/04 15:30:24;;;;;;;1.73;1.23;;;26.80;99.90;;;;;;4913819;29;20457;-76
2022/10/04 15:33:10;;;;;;;2.87;1.37;;;26.90;99.90;;;;;;4914079;29;20463;-75
2022/10/04 15:35:47;;;;;;;1.50;1.20;;;27.10;99.90;;;;;;4913157;29;20825;-77
2022/10/04 15:38:25;;;;;;;5.10;1.53;;;27.20;99.90;;;;;;4914110;29;20443;-76
2022/10/04 15:41:02;;;;;;;2.30;1.53;;;27.20;99.90;;;;;;4913468;29;21010;-76
2022/10/04 15:43:37;;;;;;;1.83;1.20;;;27.30;99.90;;;;;;4913613;29;20452;-76
2022/10/04 15:46:30;;;;;;;2.17;1.43;;;27.30;99.90;;;;;;4912354;29;20514;-76
2022/10/04 15:49:25;;;;;;;5.87;2.37;;;27.40;99.90;;;;;;4913188;29;20451;-76
2022/10/04 15:52:15;;;;;;;3.80;1.50;;;27.30;99.90;;;;;;4905927;29;20506;-76
2022/10/04 15:54:50;;;;;;;1.80;1.40;;;27.20;99.90;;;;;;4911306;29;20447;-76
2022/10/04 15:57:32;;;;;;;5.67;3.27;;;27.10;99.90;;;;;;4912756;29;21098;-76
2022/10/04 16:00:07;;;;;;;2.90;2.17;;;27.00;99.90;;;;;;4912907;29;20448;-76
2022/10/04 16:02:56;;;;;;;2.90;1.90;;;26.90;99.90;;;;;;4912746;29;20574;-76
2022/10/04 16:05:35;;;;;;;3.80;2.57;;;26.80;99.90;;;;;;4912017;29;20494;-76
2022/10/04 16:08:41;;;;;;;2.80;1.90;;;26.40;99.90;;;;;;4913671;29;20554;-77
2022/10/04 16:11:29;;;;;;;2.70;1.73;;;26.00;99.90;;;;;;4912461;29;20570;-76
2022/10/04 16:14:08;;;;;;;2.50;2.03;;;25.30;99.90;;;;;;4913476;29;20451;-76
2022/10/04 16:16:58;;;;;;;3.50;2.17;;;24.80;99.90;;;;;;4912448;29;20467;-76
2022/10/04 16:19:43;;;;;;;4.17;1.53;;;24.30;99.90;;;;;;4913244;29;20466;-76
2022/10/04 16:22:14;;;;;;;3.27;2.27;;;23.90;99.90;;;;;;4913158;29;20483;-76
2022/10/04 16:24:46;;;;;;;2.43;1.93;;;23.50;99.90;;;;;;4913646;29;20455;-76
2022/10/04 16:28:01;;;;;;;6.20;2.20;;;23.10;99.90;;;;;;4913506;29;20495;-76
2022/10/04 16:30:33;;;;;;;3.67;2.03;;;22.70;99.90;;;;;;4896288;29;20464;-77
2022/10/04 16:33:12;;;;;;;3.23;1.93;;;22.40;99.90;;;;;;4911194;29;20994;-76
2022/10/04 16:35:42;;;;;;;3.03;2.10;;;22.10;99.90;;;;;;4910906;29;20466;-77
2022/10/04 16:38:23;;;;;;;4.37;2.17;;;21.90;99.90;;;;;;4910877;29;20977;-77
2022/10/04 16:41:08;;;;;;;6.70;1.77;;;21.60;99.90;;;;;;4910892;29;20868;-77
2022/10/04 16:43:37;;;;;;;6.43;2.50;;;21.30;99.90;;;;;;4911349;29;20785;-77
2022/10/04 16:46:12;;;;;;;3.23;1.97;;;21.20;99.90;;;;;;4910327;29;20501;-77
2022/10/04 16:48:49;;;;;;;3.60;2.30;;;20.90;99.90;;;;;;4911127;29;20532;-77
2022/10/04 16:51:39;;;;;;;9.13;2.87;;;20.70;99.90;;;;;;4910881;29;20489;-77
2022/10/04 16:54:30;;;;;;;2.90;2.40;;;20.50;99.90;;;;;;4910503;29;20462;-77
2022/10/04 16:57:21;;;;;;;2.90;2.23;;;20.40;99.90;;;;;;4910441;29;20832;-77
2022/10/04 16:59:53;;;;;;;4.47;1.90;;;20.10;99.90;;;;;;4910856;29;20526;-77
2022/10/04 17:03:03;;;;;;;4.10;2.70;;;19.90;99.90;;;;;;4910109;29;20501;-77
2022/10/04 17:05:47;;;;;;;5.30;2.50;;;19.70;99.90;;;;;;4910001;29;20876;-77
2022/10/04 17:08:29;;;;;;;10.40;2.97;;;19.50;99.90;;;;;;4910738;29;20451;-77
2022/10/04 17:11:34;;;;;;;7.87;3.03;;;19.40;99.90;;;;;;4910256;29;20479;-77
2022/10/04 17:14:15;;;;;;;4.27;2.30;;;19.20;99.90;;;;;;4908685;29;20479;-76
2022/10/04 17:16:54;;;;;;;6.87;2.57;;;19.00;99.90;;;;;;4911357;29;20459;-75
2022/10/04 17:19:31;;;;;;;4.00;2.37;;;18.90;99.90;;;;;;4910540;29;20447;-76
2022/10/04 17:22:14;;;;;;;5.23;2.83;;;18.80;99.90;;;;;;4911058;29;20505;-76
2022/10/04 17:24:55;;;;;;;3.97;3.00;;;18.60;99.90;;;;;;4909206;29;20482;-76
2022/10/04 17:27:27;;;;;;;5.40;3.40;;;18.50;99.90;;;;;;4910047;29;20511;-74
2022/10/04 17:30:04;;;;;;;4.90;3.00;;;18.40;99.90;;;;;;4910203;29;20467;-75
2022/10/04 17:32:43;;;;;;;6.53;3.80;;;18.20;99.90;;;;;;4910104;29;20491;-74
2022/10/04 17:35:22;;;;;;;11.90;7.50;;;18.10;99.90;;;;;;4909820;29;20447;-74
2022/10/04 17:37:56;;;;;;;10.83;4.93;;;18.00;99.90;;;;;;4909877;29;21037;-74
2022/10/04 17:40:42;;;;;;;13.33;7.40;;;17.90;99.90;;;;;;4911021;29;20475;-75
2022/10/04 17:43:20;;;;;;;8.97;5.40;;;17.80;99.90;;;;;;4910401;29;20463;-77
2022/10/04 17:46:05;;;;;;;7.97;6.67;;;17.70;99.90;;;;;;4910037;29;20482;-74
2022/10/04 17:57:25;;;;;;;7.43;4.23;;;17.20;99.90;;;;;;4910819;29;20463;-74
2022/10/04 18:00:01;;;;;;;14.23;4.70;;;17.20;99.90;;;;;;4911216;29;20444;-73
2022/10/04 18:02:45;;;;;;;7.73;4.47;;;17.10;99.90;;;;;;4910476;29;20486;-73
2022/10/04 18:05:17;;;;;;;8.73;4.70;;;17.00;99.90;;;;;;4910022;29;20970;-75
2022/10/04 18:07:54;;;;;;;8.77;5.20;;;17.00;99.90;;;;;;4910568;29;20984;-74
2022/10/04 18:10:28;;;;;;;6.17;4.80;;;16.90;99.90;;;;;;4911162;29;20458;-73
2022/10/04 18:13:00;;;;;;;9.93;5.07;;;16.90;99.90;;;;;;4912120;29;20463;-74
2022/10/04 18:15:31;;;;;;;6.00;4.50;;;16.80;99.90;;;;;;4910916;29;20463;-74
2022/10/04 18:18:12;;;;;;;5.90;4.30;;;16.70;99.90;;;;;;4911498;29;20464;-74
2022/10/04 18:20:46;;;;;;;4.77;4.10;;;16.70;99.90;;;;;;4910591;29;20992;-73
2022/10/04 18:23:19;;;;;;;7.43;4.93;;;16.60;99.90;;;;;;4911133;29;20459;-75
2022/10/04 18:25:48;;;;;;;10.93;4.73;;;16.60;99.90;;;;;;4912427;29;20462;-75
2022/10/04 18:28:20;;;;;;;8.53;5.20;;;16.50;99.90;;;;;;4909337;29;20471;-75
2022/10/04 18:30:58;;;;;;;7.50;5.13;;;16.50;99.90;;;;;;4909837;29;20495;-74
2022/10/04 18:33:31;;;;;;;12.40;5.50;;;16.40;99.90;;;;;;4909541;29;20499;-75